首页
METAR-TAF:

METAR-TAF

机场 :

那空是贪玛叻, 泰国

纬度: 8-32-22N, 经度: 99-56-41E, 海拔: 4米

当前天气观测

该预报发布于1小时和6分钟前的01:00 UTC
风速3节,风向东转东南,在东北南转南东之间变化
温度 29°C
湿度 66%
气压 1007 hPa
能见度10公里或以上
少量云层高于1800英尺

METAR: VTSF 220100Z 11003KT 040V160 9999 FEW018 29/22 Q1007 NOSIG

时间: 09:06 (02:06 UTC)

预报

该预报发布于3小时和6分钟前的23:00 UTC
预报有效从22日的 00点(UTC)到 22日的 24点(UTC)
风速6节,风向南转西南
能见度10公里或以上
少量云层高于2000英尺
几率 40% :
短暂存在
从 22日的 06点(UTC)到 22日的 12点(UTC)
风速15节,风向多变,有时为25节阵风
能見度: 4000
少量云层高于1600英尺, 积雨云.
散云层高于1800英尺
多云层高于10000英尺
雷暴, 雨,

TAF: VTSF 212300Z 2200/2224 21006KT 9999 FEW020 PROB40 TEMPO 2206/2212 VRB15G25KT 4000 TSRA FEW016CB SCT018 BKN100

超过4000个机场的气象观测和天气预报(METAR&TAF报告)。

可查询的气象台以黄色和红色小点在地图上表示。

将鼠标移到小点上方,可查看气象台名称。

然后点击查看天气观测和预报。

如需切换地图:点击带黑十字的绿色按钮放大地图;点击带横线的绿色按钮缩小地图;或者点击绿色箭头查看邻近地区的地图。


METAR-TAF: